createdAt,value
2022-10-24T00:00:45.021Z,100145.63
2022-10-24T00:03:12.187Z,100134.88
2022-10-24T00:05:43.407Z,100136.22
2022-10-24T00:08:10.072Z,100142.06
2022-10-24T00:10:36.957Z,100133.84
2022-10-24T00:13:04.203Z,100147.66
2022-10-24T00:15:30.681Z,100152.34
2022-10-24T00:17:57.122Z,100162.91
2022-10-24T00:20:23.560Z,100168.63
2022-10-24T00:22:50.021Z,100163.41
2022-10-24T00:25:16.579Z,100170.44
2022-10-24T00:27:43.110Z,100169.63
2022-10-24T00:30:09.917Z,100171.47
2022-10-24T00:32:36.398Z,100172.28
2022-10-24T00:35:02.933Z,100169.78
2022-10-24T00:37:29.401Z,100169.28
2022-10-24T00:39:55.852Z,100166.41
2022-10-24T00:42:22.309Z,100168.44
2022-10-24T00:44:52.067Z,100170.94
2022-10-24T00:47:27.006Z,100169.28
2022-10-24T00:50:11.884Z,100168.13
2022-10-24T00:52:43.141Z,100172.63
2022-10-24T00:55:10.512Z,100165.06
2022-10-24T00:57:43.666Z,100161.53
2022-10-24T01:00:16.817Z,100163.22
2022-10-24T01:02:43.944Z,100169.44
2022-10-24T01:05:11.673Z,100160.72
2022-10-24T01:07:58.834Z,100153.81
2022-10-24T01:10:46.290Z,100154.50
2022-10-24T01:13:49.468Z,100145.78
2022-10-24T01:16:23.827Z,100149.06
2022-10-24T01:18:59.764Z,100143.25
2022-10-24T01:21:32.148Z,100158.72
2022-10-24T01:24:26.254Z,100154.50
2022-10-24T01:27:08.136Z,100161.19
2022-10-24T01:29:48.538Z,100157.34
2022-10-24T01:32:36.954Z,100151.47
2022-10-24T01:35:21.782Z,100141.03
2022-10-24T01:37:59.584Z,100138.16
2022-10-24T01:40:46.757Z,100129.28
2022-10-24T01:43:17.195Z,100121.25
2022-10-24T01:45:48.483Z,100129.59
2022-10-24T01:48:17.560Z,100124.75
2022-10-24T01:50:47.212Z,100128.25
2022-10-24T01:53:15.128Z,100120.69
2022-10-24T01:55:43.422Z,100112.34
2022-10-24T01:58:09.864Z,100114.00
2022-10-24T02:00:36.421Z,100117.19
2022-10-24T02:03:22.359Z,100113.31
2022-10-24T02:05:53.202Z,100114.66
2022-10-24T02:08:32.460Z,100115.50
2022-10-24T02:11:02.264Z,100106.09
2022-10-24T02:13:45.051Z,100111.66
2022-10-24T02:16:15.701Z,100101.91
2022-10-24T02:18:42.443Z,100100.41
2022-10-24T02:21:24.170Z,100091.34
2022-10-24T02:24:05.709Z,100101.22
2022-10-24T02:26:47.140Z,100094.50
2022-10-24T02:29:40.004Z,100090.16
2022-10-24T02:32:10.447Z,100081.25
2022-10-24T02:34:40.057Z,100080.72
2022-10-24T02:37:08.578Z,100086.63
2022-10-24T02:39:35.875Z,100088.09
2022-10-24T02:42:04.516Z,100082.75
2022-10-24T02:44:32.317Z,100087.13
2022-10-24T02:47:02.251Z,100083.91
2022-10-24T02:49:28.893Z,100094.81
2022-10-24T02:51:55.775Z,100088.75
2022-10-24T02:54:22.300Z,100082.06
2022-10-24T02:56:54.136Z,100080.22
2022-10-24T02:59:20.645Z,100076.50
2022-10-24T03:01:47.193Z,100088.75
2022-10-24T03:04:13.717Z,100090.25
2022-10-24T03:06:40.401Z,100092.63
2022-10-24T03:09:06.949Z,100091.97
2022-10-24T03:11:33.565Z,100093.31
2022-10-24T03:14:00.015Z,100105.84
2022-10-24T03:16:27.685Z,100100.78
2022-10-24T03:18:55.136Z,100100.66
2022-10-24T03:21:21.985Z,100108.84
2022-10-24T03:23:48.481Z,100105.66
2022-10-24T03:26:15.086Z,100106.03
2022-10-24T03:28:41.522Z,100109.19
2022-10-24T03:31:08.374Z,100100.94
2022-10-24T03:33:34.913Z,100112.84
2022-10-24T03:36:01.512Z,100105.09
2022-10-24T03:38:28.415Z,100108.63
2022-10-24T03:40:54.870Z,100101.78
2022-10-24T03:43:21.365Z,100099.94
2022-10-24T03:45:48.131Z,100107.28
2022-10-24T03:48:15.009Z,100114.81
2022-10-24T03:50:41.671Z,100117.16
2022-10-24T03:53:08.391Z,100112.97
2022-10-24T03:55:35.184Z,100116.34
2022-10-24T03:58:01.651Z,100112.13
2022-10-24T04:00:29.092Z,100112.97
2022-10-24T04:02:56.167Z,100106.59
2022-10-24T04:05:22.998Z,100113.50
2022-10-24T04:07:49.520Z,100106.44
2022-10-24T04:10:15.977Z,100099.56
2022-10-24T04:12:42.439Z,100094.03
2022-10-24T04:15:09.276Z,100096.53
2022-10-24T04:17:35.748Z,100097.84
2022-10-24T04:20:02.220Z,100088.81
2022-10-24T04:22:28.845Z,100088.94
2022-10-24T04:24:55.316Z,100103.84
2022-10-24T04:27:21.797Z,100114.09
2022-10-24T04:29:48.274Z,100112.25
2022-10-24T04:32:14.718Z,100115.56
2022-10-24T04:34:41.205Z,100113.41
2022-10-24T04:37:07.665Z,100109.25
2022-10-24T04:39:34.201Z,100117.56
2022-10-24T04:42:00.655Z,100114.84
2022-10-24T04:44:27.161Z,100116.38
2022-10-24T04:46:53.587Z,100113.53
2022-10-24T04:49:20.339Z,100115.88
2022-10-24T04:51:46.912Z,100113.41
2022-10-24T04:54:13.494Z,100116.72
2022-10-24T04:56:39.923Z,100121.53
2022-10-24T04:59:06.448Z,100115.03
2022-10-24T05:01:32.905Z,100114.63
2022-10-24T05:03:59.440Z,100104.97
2022-10-24T05:06:25.879Z,100106.59
2022-10-24T05:08:52.402Z,100108.34
2022-10-24T05:11:18.864Z,100108.38
2022-10-24T05:13:45.489Z,100103.25
2022-10-24T05:16:11.944Z,100111.22
2022-10-24T05:18:38.396Z,100108.03
2022-10-24T05:21:05.011Z,100107.50
2022-10-24T05:23:31.502Z,100098.25
2022-10-24T05:25:58.016Z,100106.50
2022-10-24T05:28:25.089Z,100113.22
2022-10-24T05:30:51.684Z,100117.25
2022-10-24T05:33:18.152Z,100103.59
2022-10-24T05:35:44.650Z,100102.06
2022-10-24T05:38:11.423Z,100090.75
2022-10-24T05:40:37.931Z,100090.84
2022-10-24T05:43:04.385Z,100091.91
2022-10-24T05:45:30.840Z,100087.69
2022-10-24T05:47:57.310Z,100089.38
2022-10-24T05:50:23.770Z,100099.78
2022-10-24T05:52:50.216Z,100102.56
2022-10-24T05:55:18.263Z,100095.59
2022-10-24T05:57:45.908Z,100092.09
2022-10-24T06:00:15.006Z,100100.59
2022-10-24T06:02:42.360Z,100107.00
2022-10-24T06:05:10.309Z,100112.53
2022-10-24T06:07:37.013Z,100105.53
2022-10-24T06:10:05.591Z,100105.09
2022-10-24T06:12:33.105Z,100102.06
2022-10-24T06:15:00.530Z,100103.75
2022-10-24T06:17:27.042Z,100105.94
2022-10-24T06:19:53.574Z,100104.53
2022-10-24T06:22:20.461Z,100109.56
2022-10-24T06:24:46.903Z,100105.72
2022-10-24T06:27:13.393Z,100115.38
2022-10-24T06:29:39.834Z,100117.72
2022-10-24T06:32:06.303Z,100120.44
2022-10-24T06:34:32.843Z,100120.53
2022-10-24T06:36:59.380Z,100128.13
2022-10-24T06:39:25.875Z,100121.41
2022-10-24T06:41:52.330Z,100122.63
2022-10-24T06:44:18.798Z,100122.28
2022-10-24T06:46:45.521Z,100131.53
2022-10-24T06:49:13.556Z,100127.66
2022-10-24T06:51:40.747Z,100132.53
2022-10-24T06:54:08.033Z,100137.38
2022-10-24T06:56:35.026Z,100139.56
2022-10-24T06:59:01.469Z,100134.38
2022-10-24T07:01:34.023Z,100136.03
2022-10-24T07:04:25.874Z,100127.97
2022-10-24T07:06:52.351Z,100129.16
2022-10-24T07:09:28.679Z,100131.84
2022-10-24T07:12:23.321Z,100138.91
2022-10-24T07:14:52.619Z,100151.66
2022-10-24T07:17:20.575Z,100141.09
2022-10-24T07:19:53.666Z,100138.91
2022-10-24T07:22:20.365Z,100137.59
2022-10-24T07:24:52.508Z,100144.63
2022-10-24T07:27:18.962Z,100143.09
2022-10-24T07:29:45.459Z,100139.25
2022-10-24T07:32:11.971Z,100143.28
2022-10-24T07:34:39.848Z,100143.28
2022-10-24T07:37:06.587Z,100141.09
2022-10-24T07:39:33.054Z,100138.25
2022-10-24T07:41:59.490Z,100147.97
2022-10-24T07:44:25.955Z,100146.81
2022-10-24T07:46:52.395Z,100150.50
2022-10-24T07:49:18.881Z,100143.44
2022-10-24T07:51:45.335Z,100146.47
2022-10-24T07:54:11.846Z,100141.06
2022-10-24T07:56:38.378Z,100142.06
2022-10-24T07:59:09.200Z,100140.06
2022-10-24T08:01:40.322Z,100145.91
2022-10-24T08:04:06.882Z,100148.59
2022-10-24T08:06:33.637Z,100150.28
2022-10-24T08:09:00.240Z,100151.81
2022-10-24T08:11:28.639Z,100153.47
2022-10-24T08:13:57.332Z,100150.13
2022-10-24T08:16:25.308Z,100148.75
2022-10-24T08:18:53.612Z,100149.63
2022-10-24T08:21:21.604Z,100144.91
2022-10-24T08:23:50.408Z,100141.72
2022-10-24T08:26:21.409Z,100151.63
2022-10-24T08:28:48.858Z,100155.84
2022-10-24T08:31:18.241Z,100139.03
2022-10-24T08:33:45.903Z,100140.88
2022-10-24T08:36:25.685Z,100153.75
2022-10-24T08:38:52.196Z,100150.94
2022-10-24T08:41:46.808Z,100156.63
2022-10-24T08:44:30.237Z,100153.31
2022-10-24T08:47:27.736Z,100154.13
2022-10-24T08:49:56.348Z,100148.88
2022-10-24T08:52:44.608Z,100156.53
2022-10-24T08:55:31.015Z,100153.84
2022-10-24T08:58:06.013Z,100145.63
2022-10-24T09:00:44.419Z,100142.97
2022-10-24T09:03:43.967Z,100142.38
2022-10-24T09:06:22.114Z,100141.31
2022-10-24T09:09:02.698Z,100144.19
2022-10-24T09:11:32.212Z,100136.03
2022-10-24T09:14:02.967Z,100129.91
2022-10-24T09:16:29.489Z,100139.16
2022-10-24T09:18:57.680Z,100141.56
2022-10-24T09:21:24.366Z,100146.16
2022-10-24T09:23:51.750Z,100148.13
2022-10-24T09:26:32.402Z,100149.59
2022-10-24T09:28:58.922Z,100154.72
2022-10-24T09:31:27.146Z,100148.09
2022-10-24T09:33:54.163Z,100148.50
2022-10-24T09:36:24.874Z,100146.44
2022-10-24T09:38:51.521Z,100146.41
2022-10-24T09:54:18.310Z,100133.25
2022-10-24T09:57:05.239Z,100139.03
2022-10-24T09:59:45.128Z,100131.19
2022-10-24T10:02:14.793Z,100127.59
2022-10-24T10:04:41.973Z,100123.78
2022-10-24T10:07:10.537Z,100117.19
2022-10-24T10:09:42.250Z,100119.50
2022-10-24T10:12:38.660Z,100114.97
2022-10-24T10:15:18.283Z,100126.44
2022-10-24T10:17:53.224Z,100124.03
2022-10-24T10:20:28.141Z,100114.94
2022-10-24T10:22:54.646Z,100117.09
2022-10-24T10:25:32.643Z,100110.75
2022-10-24T10:28:02.311Z,100123.16
2022-10-24T10:30:29.736Z,100123.22
2022-10-24T10:33:00.752Z,100123.22
2022-10-24T10:35:27.183Z,100119.25
2022-10-24T10:38:23.032Z,100118.34
2022-10-24T10:40:57.104Z,100115.41
2022-10-24T10:43:42.331Z,100116.84
2022-10-24T10:46:30.210Z,100108.56
2022-10-24T10:49:14.777Z,100099.72
2022-10-24T10:51:57.337Z,100096.03
2022-10-24T10:54:31.959Z,100086.09
2022-10-24T10:57:19.506Z,100091.47
2022-10-24T10:59:58.488Z,100079.41
2022-10-24T11:03:07.981Z,100083.16
2022-10-24T11:06:01.429Z,100095.28
2022-10-24T11:08:27.870Z,100088.56
2022-10-24T11:11:03.231Z,100093.97
2022-10-24T11:13:37.411Z,100082.47
2022-10-24T11:16:08.309Z,100084.88
2022-10-24T11:18:39.993Z,100098.13
2022-10-24T11:21:09.821Z,100085.84
2022-10-24T11:24:11.179Z,100097.72
2022-10-24T11:26:42.833Z,100093.41
2022-10-24T11:29:36.448Z,100091.41
2022-10-24T11:32:20.588Z,100090.69
2022-10-24T11:34:54.459Z,100095.13
2022-10-24T11:37:38.666Z,100087.56
2022-10-24T11:40:12.260Z,100080.56
2022-10-24T11:43:16.610Z,100089.09
2022-10-24T11:45:51.726Z,100084.09
2022-10-24T11:48:21.032Z,100111.22
2022-10-24T11:51:19.255Z,100115.47
2022-10-24T11:54:00.332Z,100109.13
2022-10-24T11:56:35.648Z,100113.31
2022-10-24T11:59:05.394Z,100101.78
2022-10-24T12:01:58.101Z,100096.03
2022-10-24T12:04:35.845Z,100076.75
2022-10-24T12:07:05.300Z,100076.91
2022-10-24T12:10:22.821Z,100084.13
2022-10-24T12:13:07.811Z,100090.28
2022-10-24T12:16:17.478Z,100088.84
2022-10-24T12:19:05.912Z,100093.50
2022-10-24T12:21:56.050Z,100098.19
2022-10-24T12:24:33.411Z,100102.97
2022-10-24T12:31:08.354Z,100094.91
2022-10-24T12:33:35.159Z,100087.22
2022-10-24T12:36:01.812Z,100089.50
2022-10-24T12:38:28.242Z,100082.59
2022-10-24T12:41:06.466Z,100087.38
2022-10-24T12:43:42.813Z,100085.66
2022-10-24T12:46:21.684Z,100086.50
2022-10-24T12:49:17.923Z,100074.16
2022-10-24T12:51:44.447Z,100076.19
2022-10-24T12:54:10.813Z,100073.28
2022-10-24T13:01:11.965Z,100063.19
2022-10-24T13:03:50.656Z,100059.16
2022-10-24T13:06:31.768Z,100060.38
2022-10-24T13:09:17.037Z,100057.28
2022-10-24T13:11:54.592Z,100061.38
2022-10-24T13:14:39.873Z,100059.09
2022-10-24T13:17:20.298Z,100067.94
2022-10-24T13:19:46.930Z,100064.91
2022-10-24T13:22:32.379Z,100072.56
2022-10-24T13:24:59.858Z,100083.09
2022-10-24T13:27:31.329Z,100076.38
2022-10-24T13:29:57.895Z,100078.44
2022-10-24T13:32:31.872Z,100087.28
2022-10-24T13:34:59.896Z,100091.41
2022-10-24T13:37:40.547Z,100097.63
2022-10-24T13:40:14.277Z,100102.00
2022-10-24T13:42:48.581Z,100101.31
2022-10-24T13:45:41.041Z,100103.38
2022-10-24T13:48:28.918Z,100113.06
2022-10-24T13:51:17.247Z,100111.91
2022-10-24T13:53:50.176Z,100118.81
2022-10-24T13:56:17.554Z,100111.34
2022-10-24T13:58:45.055Z,100103.72
2022-10-24T14:01:19.984Z,100086.34
2022-10-24T14:03:48.213Z,100096.75
2022-10-24T14:06:14.990Z,100100.84
2022-10-24T14:09:01.434Z,100091.91
2022-10-24T14:11:31.234Z,100090.78
2022-10-24T14:14:04.026Z,100088.78
2022-10-24T14:16:35.445Z,100093.06
2022-10-24T14:19:23.572Z,100099.91
2022-10-24T14:21:54.732Z,100100.97
2022-10-24T14:24:22.835Z,100107.38
2022-10-24T14:26:53.055Z,100106.38
2022-10-24T14:29:31.179Z,100098.84
2022-10-24T14:32:07.921Z,100103.16
2022-10-24T14:34:37.449Z,100110.69
2022-10-24T14:37:28.387Z,100108.81
2022-10-24T14:39:55.678Z,100108.44
2022-10-24T14:42:22.646Z,100107.78
2022-10-24T14:44:49.592Z,100112.25
2022-10-24T14:47:25.591Z,100106.38
2022-10-24T14:49:53.208Z,100104.91
2022-10-24T14:52:28.649Z,100113.97
2022-10-24T14:55:05.735Z,100117.88
2022-10-24T14:57:33.707Z,100116.69
2022-10-24T15:00:07.093Z,100113.88
2022-10-24T15:02:43.028Z,100122.06
2022-10-24T15:05:18.908Z,100128.44
2022-10-24T15:08:02.853Z,100125.25
2022-10-24T15:10:38.155Z,100129.22
2022-10-24T15:13:07.498Z,100133.69
2022-10-24T15:15:48.624Z,100126.72
2022-10-24T15:18:24.452Z,100129.78
2022-10-24T15:20:54.400Z,100127.81
2022-10-24T15:23:36.052Z,100140.97
2022-10-24T15:26:09.834Z,100141.13
2022-10-24T15:28:45.405Z,100137.34
2022-10-24T15:31:15.370Z,100142.09
2022-10-24T15:33:42.469Z,100157.47
2022-10-24T15:36:20.297Z,100146.66
2022-10-24T15:38:48.565Z,100143.88
2022-10-24T15:41:15.994Z,100144.25
2022-10-24T15:43:42.438Z,100154.41
2022-10-24T15:46:08.879Z,100156.09
2022-10-24T15:48:35.350Z,100158.91
2022-10-24T15:51:01.783Z,100160.94
2022-10-24T15:53:28.245Z,100165.03
2022-10-24T15:55:54.687Z,100177.06
2022-10-24T15:58:21.417Z,100170.91
2022-10-24T16:00:48.600Z,100167.94
2022-10-24T16:03:22.507Z,100170.34
2022-10-24T16:05:52.922Z,100174.34
2022-10-24T16:08:20.739Z,100176.28
2022-10-24T16:10:51.812Z,100168.28
2022-10-24T16:13:21.412Z,100170.13
2022-10-24T16:15:48.785Z,100170.78
2022-10-24T16:18:16.111Z,100167.97
2022-10-24T16:20:42.637Z,100168.72
2022-10-24T16:23:13.777Z,100175.63
2022-10-24T16:25:40.233Z,100168.19
2022-10-24T16:28:08.011Z,100172.56
2022-10-24T16:30:36.908Z,100171.16
2022-10-24T16:33:03.634Z,100173.69
2022-10-24T16:35:33.748Z,100163.03
2022-10-24T16:38:02.143Z,100168.19
2022-10-24T16:40:29.720Z,100166.13
2022-10-24T16:42:58.274Z,100162.78
2022-10-24T16:45:25.656Z,100166.75
2022-10-24T16:47:52.336Z,100164.63
2022-10-24T16:50:25.112Z,100168.03
2022-10-24T16:52:56.974Z,100171.59
2022-10-24T16:55:23.614Z,100172.84
2022-10-24T16:57:50.139Z,100166.66
2022-10-24T17:00:18.901Z,100167.69
2022-10-24T17:02:48.437Z,100168.78
2022-10-24T17:05:15.448Z,100167.44
2022-10-24T17:07:42.231Z,100164.03
2022-10-24T17:10:11.689Z,100167.91
2022-10-24T17:12:40.677Z,100167.63
2022-10-24T17:15:08.393Z,100165.41
2022-10-24T17:17:35.458Z,100163.06
2022-10-24T17:20:02.812Z,100168.09
2022-10-24T17:22:29.543Z,100168.75
2022-10-24T17:24:56.662Z,100169.88
2022-10-24T17:27:23.370Z,100171.13
2022-10-24T17:29:50.211Z,100167.78
2022-10-24T17:32:16.888Z,100161.84
2022-10-24T17:34:45.242Z,100163.91
2022-10-24T17:37:36.306Z,100173.09
2022-10-24T17:40:13.175Z,100173.63
2022-10-24T17:42:40.760Z,100175.00
2022-10-24T17:45:14.832Z,100167.94
2022-10-24T17:47:41.455Z,100165.78
2022-10-24T17:50:08.546Z,100151.31
2022-10-24T17:52:35.043Z,100143.31
2022-10-24T17:55:01.655Z,100149.44
2022-10-24T17:57:28.108Z,100146.25
2022-10-24T17:59:54.676Z,100147.78
2022-10-24T18:02:21.243Z,100158.06
2022-10-24T18:04:47.719Z,100153.69
2022-10-24T18:07:14.965Z,100160.38
2022-10-24T18:09:41.412Z,100167.16
2022-10-24T18:12:07.885Z,100160.56
2022-10-24T18:14:36.757Z,100171.19
2022-10-24T18:17:03.297Z,100168.88
2022-10-24T18:19:29.752Z,100164.66
2022-10-24T18:21:57.267Z,100167.69
2022-10-24T18:24:23.705Z,100178.06
2022-10-24T18:26:50.199Z,100182.13
2022-10-24T18:29:16.639Z,100186.59
2022-10-24T18:31:43.104Z,100187.88
2022-10-24T18:34:09.573Z,100184.56
2022-10-24T18:36:36.904Z,100184.91
2022-10-24T18:39:04.094Z,100190.72
2022-10-24T18:41:30.511Z,100206.38
2022-10-24T18:43:59.768Z,100204.88
2022-10-24T18:46:27.120Z,100209.84
2022-10-24T18:48:53.787Z,100210.09
2022-10-24T18:51:37.336Z,100215.78
2022-10-24T18:54:07.194Z,100206.19
2022-10-24T18:56:34.367Z,100204.91
2022-10-24T18:59:00.966Z,100206.75
2022-10-24T19:02:06.766Z,100204.53
2022-10-24T19:04:34.313Z,100205.47
2022-10-24T19:07:03.440Z,100194.34
2022-10-24T19:09:29.986Z,100198.41
2022-10-24T19:11:57.024Z,100188.63
2022-10-24T19:14:25.094Z,100188.63
2022-10-24T19:16:52.546Z,100189.47
2022-10-24T19:19:28.771Z,100196.72
2022-10-24T19:21:55.571Z,100192.69
2022-10-24T19:24:22.274Z,100191.16
2022-10-24T19:26:49.842Z,100191.50
2022-10-24T19:29:16.978Z,100177.38
2022-10-24T19:31:43.452Z,100184.38
2022-10-24T19:34:10.338Z,100186.25
2022-10-24T19:36:36.855Z,100193.97
2022-10-24T19:39:03.999Z,100198.47
2022-10-24T19:41:30.536Z,100198.19
2022-10-24T19:43:57.002Z,100193.78
2022-10-24T19:46:23.565Z,100196.97
2022-10-24T19:48:50.235Z,100202.00
2022-10-24T19:51:19.154Z,100195.06
2022-10-24T19:53:46.736Z,100202.97
2022-10-24T19:56:20.208Z,100208.53
2022-10-24T19:58:49.435Z,100208.69
2022-10-24T20:01:18.735Z,100206.03
2022-10-24T20:03:47.612Z,100212.78
2022-10-24T20:06:15.801Z,100206.50
2022-10-24T20:08:42.573Z,100206.56
2022-10-24T20:11:09.816Z,100204.66
2022-10-24T20:13:36.486Z,100208.22
2022-10-24T20:16:05.904Z,100211.91
2022-10-24T20:18:34.219Z,100212.13
2022-10-24T20:21:03.980Z,100218.03
2022-10-24T20:23:30.922Z,100222.91
2022-10-24T20:26:03.322Z,100220.03
2022-10-24T20:28:32.980Z,100210.44
2022-10-24T20:30:59.433Z,100217.16
2022-10-24T20:33:26.046Z,100218.84
2022-10-24T20:35:52.512Z,100217.28
2022-10-24T20:38:19.005Z,100217.69
2022-10-24T20:40:45.459Z,100220.88
2022-10-24T20:43:11.906Z,100221.41
2022-10-24T20:45:41.399Z,100216.56
2022-10-24T20:48:08.268Z,100227.34
2022-10-24T20:50:35.609Z,100226.66
2022-10-24T20:53:02.813Z,100224.97
2022-10-24T20:55:43.908Z,100225.63
2022-10-24T20:58:13.461Z,100228.00
2022-10-24T21:03:14.243Z,100227.34
2022-10-24T21:05:40.861Z,100219.59
2022-10-24T21:08:07.397Z,100219.09
2022-10-24T21:10:33.853Z,100217.41
2022-10-24T21:13:00.300Z,100214.06
2022-10-24T21:15:26.823Z,100219.44
2022-10-24T21:17:53.259Z,100223.97
2022-10-24T21:20:19.729Z,100227.63
2022-10-24T21:22:46.173Z,100219.09
2022-10-24T21:25:12.641Z,100220.94
2022-10-24T21:27:39.094Z,100222.66
2022-10-24T21:30:07.989Z,100224.00
2022-10-24T21:32:37.462Z,100224.50
2022-10-24T21:35:04.146Z,100225.69
2022-10-24T21:37:32.197Z,100230.22
2022-10-24T21:39:58.726Z,100237.16
2022-10-24T21:42:25.154Z,100239.34
2022-10-24T21:44:51.602Z,100233.34
2022-10-24T21:47:18.050Z,100239.75
2022-10-24T21:49:44.500Z,100238.41
2022-10-24T21:52:10.959Z,100246.16
2022-10-24T21:54:37.414Z,100244.50
2022-10-24T21:57:03.920Z,100244.81
2022-10-24T21:59:30.486Z,100239.78
2022-10-24T22:01:57.055Z,100236.06
2022-10-24T22:04:23.737Z,100238.28
2022-10-24T22:06:50.281Z,100240.47
2022-10-24T22:09:19.810Z,100239.16
2022-10-24T22:11:46.723Z,100241.00
2022-10-24T22:14:15.512Z,100231.56
2022-10-24T22:16:44.467Z,100225.53
2022-10-24T22:19:12.287Z,100227.06
2022-10-24T22:21:47.318Z,100226.88
2022-10-24T22:24:17.797Z,100236.81
2022-10-24T22:26:44.686Z,100239.00
2022-10-24T22:29:13.974Z,100236.16
2022-10-24T22:31:40.897Z,100243.72
2022-10-24T22:34:07.853Z,100249.78
2022-10-24T22:37:03.537Z,100251.13
2022-10-24T22:39:30.363Z,100255.31
2022-10-24T22:41:57.061Z,100253.28
2022-10-24T22:44:23.740Z,100253.63
2022-10-24T22:47:11.587Z,100256.81
2022-10-24T22:49:41.010Z,100245.75
2022-10-24T22:52:11.321Z,100262.56
2022-10-24T22:54:38.449Z,100248.91
2022-10-24T22:57:05.728Z,100256.31
2022-10-24T22:59:33.417Z,100261.16
2022-10-24T23:02:12.800Z,100260.84
2022-10-24T23:04:45.881Z,100268.72
2022-10-24T23:07:26.672Z,100265.38
2022-10-24T23:09:54.247Z,100270.97
2022-10-24T23:12:22.469Z,100275.31
2022-10-24T23:14:50.609Z,100279.69
2022-10-24T23:17:24.101Z,100288.06
2022-10-24T23:19:50.884Z,100289.28
2022-10-24T23:22:26.268Z,100287.41
2022-10-24T23:24:55.136Z,100297.69
2022-10-24T23:27:27.359Z,100299.03
2022-10-24T23:29:54.252Z,100295.69
2022-10-24T23:32:26.890Z,100297.19
2022-10-24T23:34:54.509Z,100292.50
2022-10-24T23:37:27.933Z,100298.38
2022-10-24T23:39:54.838Z,100300.38
2022-10-24T23:42:21.578Z,100293.84
2022-10-24T23:44:48.409Z,100285.41
2022-10-24T23:47:36.009Z,100297.56
2022-10-24T23:50:11.459Z,100288.44
2022-10-24T23:52:53.237Z,100294.16
2022-10-24T23:55:20.086Z,100296.16
2022-10-24T23:57:46.707Z,100296.34
